Chesapeake, VA (23320)

1:42 AM EST on November 26, 2014 (GMT -0500)
South Greenbrier | Change Station
CLOSE
Current Station
Personal Weather Station
Location: Chesapeake, VA
Elevation: 33 ft
Nearby Weather Stations

Elev 33 ft 36.74 °N, 76.22 °W | Updated 16 seconds ago

Rain
Rain
52.2 °F
Feels Like 52.2 °F
N
2.0
Wind Variable Wind from North
Gusts 4.0 mph

Today
High -- | Low -- °F
--% Chance of Precip.
Yesterday
High -- | Low -- °F
Precip. -- in
6:54 AM 4:50 PM
Waxing Crescent, 17% visible
Pressure 30.03 in
Visibility 6.0 miles
Clouds Mostly Cloudy 500 ft
Mostly Cloudy 1000 ft
Overcast 2000 ft
Dew Point 51 °F
Humidity 96%
Rainfall 0.05 in
Snow Depth Not available.
UV 0 out of 12
Pollen .40 out of 12
Air Quality Not available.
Flu Activity Not available.
METAR KNFE 260556Z AUTO 04009KT 6SM -RA BKN005 BKN010 OVC020 13/11 A3002 RMK AO2 PRESFR SLP169 P0000 60000 T01330106 10139 20128 58034

More Conditions Fewer Conditions

Pressure 30.03 in
Visibility 6.0 miles
Clouds Mostly Cloudy 500 ft
Mostly Cloudy 1000 ft
Overcast 2000 ft
Dew Point 51 °F
Humidity 96%
Rainfall 0.05 in
Snow Depth Not available.
UV 0 out of 12
Pollen .40 out of 12
Air Quality Not available.
Flu Activity Not available.
METAR KNFE 260556Z AUTO 04009KT 6SM -RA BKN005 BKN010 OVC020 13/11 A3002 RMK AO2 PRESFR SLP169 P0000 60000 T01330106 10139 20128 58034

More Conditions Fewer Conditions

10-Day Weather Forecast

Almanac

Astronomy

Nov. 26, 2014 Rise Set
Actual Time
Civil Twilight
Nautical Twilight
Astronomical Twilight
Moon
Length of Visible Light
Length of Day
Tomorrow will be .
, % of the Moon is Illuminated

Today's Extremes

State Highs State Lows

Community

WunderPhotos

Upload Photos

1,773,691 photos uploaded!

WunderBlogs® & News

Nearby

Air Quality

  Air Quality AQ Index Pollutant
Not available.

Snow Depth

Station Depth Elevation

Earthquake Activity

City Distance Mag. Time & Date
Minimum magnitude displayed is 2.5.

Coastal Water Temperatures

Place Temperature

Nearby Weather Stations